createdAt,value
2018-09-06T00:02:09.883Z,74.10
2018-09-06T00:04:38.995Z,73.96
2018-09-06T00:07:08.018Z,74.04
2018-09-06T00:09:37.237Z,73.81
2018-09-06T00:12:06.386Z,73.26
2018-09-06T00:14:35.640Z,73.45
2018-09-06T00:17:04.850Z,73.58
2018-09-06T00:19:33.869Z,74.17
2018-09-06T00:22:02.887Z,72.82
2018-09-06T00:24:32.164Z,73.75
2018-09-06T00:27:01.403Z,73.94
2018-09-06T00:29:36.995Z,74.32
2018-09-06T00:32:06.283Z,73.80
2018-09-06T00:34:35.492Z,73.63
2018-09-06T00:37:04.503Z,74.68
2018-09-06T00:39:33.698Z,75.08
2018-09-06T00:42:02.719Z,74.67
2018-09-06T00:44:31.791Z,75.18
2018-09-06T00:47:00.876Z,74.52
2018-09-06T00:49:29.989Z,75.64
2018-09-06T00:51:59.089Z,74.47
2018-09-06T00:54:28.323Z,74.75
2018-09-06T00:56:57.716Z,75.51
2018-09-06T00:59:27.032Z,76.02
2018-09-06T01:01:56.490Z,75.25
2018-09-06T01:04:25.745Z,75.77
2018-09-06T01:06:55.040Z,74.53
2018-09-06T01:09:24.232Z,73.75
2018-09-06T01:11:53.234Z,74.49
2018-09-06T01:14:22.261Z,74.98
2018-09-06T01:16:51.304Z,75.05
2018-09-06T01:19:20.312Z,74.85
2018-09-06T01:21:49.358Z,73.86
2018-09-06T01:24:18.400Z,73.54
2018-09-06T01:26:47.399Z,75.40
2018-09-06T01:29:16.766Z,75.98
2018-09-06T01:31:45.756Z,73.66
2018-09-06T01:34:14.773Z,74.24
2018-09-06T01:36:46.690Z,75.72
2018-09-06T01:39:16.721Z,74.50
2018-09-06T01:41:45.858Z,75.85
2018-09-06T01:44:15.318Z,74.42
2018-09-06T01:46:44.575Z,74.69
2018-09-06T01:49:13.591Z,74.88
2018-09-06T01:51:43.002Z,75.04
2018-09-06T01:54:12.255Z,74.19
2018-09-06T01:56:41.321Z,72.92
2018-09-06T01:59:13.050Z,73.13
2018-09-06T02:01:42.307Z,74.58
2018-09-06T02:04:11.315Z,73.31
2018-09-06T02:06:40.426Z,73.92
2018-09-06T02:09:10.397Z,73.64
2018-09-06T02:11:40.367Z,73.74
2018-09-06T02:14:09.579Z,74.98
2018-09-06T02:16:38.583Z,75.12
2018-09-06T02:19:07.598Z,74.32
2018-09-06T02:21:36.807Z,74.09
2018-09-06T02:24:06.118Z,73.95
2018-09-06T02:26:35.148Z,73.47
2018-09-06T02:29:04.162Z,73.88
2018-09-06T02:31:33.308Z,75.16
2018-09-06T02:34:02.620Z,75.77
2018-09-06T02:36:31.903Z,76.08
2018-09-06T02:39:00.954Z,75.85
2018-09-06T02:41:29.990Z,76.01
2018-09-06T02:43:59.023Z,75.75
2018-09-06T02:46:28.041Z,74.62
2018-09-06T02:48:57.070Z,76.36
2018-09-06T02:51:26.171Z,76.32
2018-09-06T02:53:55.268Z,76.03
2018-09-06T02:56:24.477Z,75.76
2018-09-06T02:58:53.694Z,76.05
2018-09-06T03:01:22.723Z,76.87
2018-09-06T03:03:51.934Z,76.81
2018-09-06T03:06:20.995Z,76.02
2018-09-06T03:08:50.004Z,77.23
2018-09-06T03:11:24.869Z,77.52
2018-09-06T03:13:54.180Z,76.14
2018-09-06T03:16:23.660Z,76.84
2018-09-06T03:18:52.893Z,76.52
2018-09-06T03:21:22.067Z,76.58
2018-09-06T03:23:51.070Z,77.14
2018-09-06T03:26:20.809Z,77.45
2018-09-06T03:28:50.936Z,76.52
2018-09-06T03:31:19.960Z,77.04
2018-09-06T03:33:49.108Z,76.56
2018-09-06T03:36:18.173Z,77.05
2018-09-06T03:38:47.198Z,77.38
2018-09-06T03:41:16.225Z,76.73
2018-09-06T03:43:45.222Z,76.34
2018-09-06T03:46:14.223Z,77.33
2018-09-06T03:48:43.449Z,77.86
2018-09-06T03:51:12.445Z,77.62
2018-09-06T03:53:41.500Z,77.43
2018-09-06T03:56:10.583Z,78.44
2018-09-06T03:58:39.605Z,77.59
2018-09-06T04:01:08.599Z,77.68
2018-09-06T04:03:37.778Z,79.04
2018-09-06T04:06:06.790Z,78.27
2018-09-06T04:08:35.846Z,77.07
2018-09-06T04:11:04.854Z,78.12
2018-09-06T04:13:33.898Z,78.42
2018-09-06T04:16:02.910Z,76.87
2018-09-06T04:18:32.118Z,77.24
2018-09-06T04:21:01.131Z,77.94
2018-09-06T04:23:30.178Z,77.18
2018-09-06T04:25:59.228Z,77.93
2018-09-06T04:28:28.352Z,78.54
2018-09-06T04:30:57.349Z,77.53
2018-09-06T04:33:26.650Z,77.25
2018-09-06T04:35:55.791Z,78.13
2018-09-06T04:38:25.042Z,77.59
2018-09-06T04:40:54.083Z,78.31
2018-09-06T04:43:23.107Z,77.15
2018-09-06T04:45:52.194Z,77.35
2018-09-06T04:48:21.214Z,77.15
2018-09-06T04:50:50.226Z,77.98
2018-09-06T04:53:19.452Z,76.90
2018-09-06T04:55:48.656Z,75.51
2018-09-06T04:58:17.710Z,75.48
2018-09-06T05:00:46.981Z,74.59
2018-09-06T05:03:16.168Z,76.47
2018-09-06T05:05:45.167Z,77.51
2018-09-06T05:08:15.081Z,77.70
2018-09-06T05:10:44.428Z,76.57
2018-09-06T05:13:13.429Z,78.83
2018-09-06T05:15:42.702Z,78.93
2018-09-06T05:18:11.967Z,79.10
2018-09-06T05:20:40.985Z,78.70
2018-09-06T05:23:09.988Z,78.26
2018-09-06T05:25:39.049Z,77.38
2018-09-06T05:28:08.274Z,77.32
2018-09-06T05:30:37.328Z,77.35
2018-09-06T05:33:06.394Z,75.01
2018-09-06T05:35:35.503Z,76.46
2018-09-06T05:38:04.590Z,75.47
2018-09-06T05:40:33.610Z,77.75
2018-09-06T05:43:02.646Z,76.55
2018-09-06T05:45:31.648Z,75.60
2018-09-06T05:48:00.972Z,77.26
2018-09-06T05:50:31.078Z,77.51
2018-09-06T05:53:01.973Z,77.01
2018-09-06T05:55:31.597Z,76.37
2018-09-06T05:58:00.869Z,76.95
2018-09-06T06:00:35.354Z,75.43
2018-09-06T06:03:06.317Z,73.43
2018-09-06T06:05:35.517Z,73.65
2018-09-06T06:28:00.876Z,75.00
2018-09-06T06:30:29.949Z,73.31
2018-09-06T06:32:58.918Z,74.10
2018-09-06T06:35:27.943Z,75.70
2018-09-06T06:37:56.952Z,74.16
2018-09-06T06:40:25.965Z,75.87
2018-09-06T06:42:54.925Z,75.54
2018-09-06T06:45:24.106Z,75.46
2018-09-06T06:47:53.171Z,72.92
2018-09-06T06:50:22.331Z,74.61
2018-09-06T06:52:51.333Z,72.76
2018-09-06T06:55:20.332Z,73.42
2018-09-06T06:57:49.586Z,74.44
2018-09-06T07:00:20.857Z,73.97
2018-09-06T07:02:50.978Z,74.03
2018-09-06T07:05:20.044Z,74.24
2018-09-06T07:07:49.456Z,73.17
2018-09-06T07:10:18.811Z,70.54
2018-09-06T07:12:47.922Z,75.87
2018-09-06T07:15:16.951Z,75.72
2018-09-06T07:17:46.044Z,76.50
2018-09-06T07:20:15.113Z,74.46
2018-09-06T07:22:44.193Z,73.83
2018-09-06T07:25:13.318Z,72.61
2018-09-06T07:27:42.522Z,73.23
2018-09-06T07:30:11.552Z,74.30
2018-09-06T07:32:40.722Z,73.09
2018-09-06T07:35:09.783Z,71.37
2018-09-06T07:37:38.789Z,71.22
2018-09-06T07:40:08.049Z,71.52
2018-09-06T07:42:37.131Z,70.80
2018-09-06T07:45:06.160Z,69.96
2018-09-06T07:47:35.385Z,68.50
2018-09-06T07:50:04.513Z,70.99
2018-09-06T07:52:33.511Z,69.87
2018-09-06T07:55:02.911Z,71.18
2018-09-06T07:57:32.117Z,70.67
2018-09-06T08:00:01.186Z,67.19
2018-09-06T08:02:30.245Z,68.11
2018-09-06T08:04:59.544Z,67.67
2018-09-06T08:07:28.839Z,66.63
2018-09-06T08:09:58.038Z,69.13
2018-09-06T08:12:27.168Z,68.23
2018-09-06T08:14:56.187Z,68.04
2018-09-06T08:17:25.242Z,68.21
2018-09-06T08:19:54.259Z,65.81
2018-09-06T08:22:23.360Z,66.06
2018-09-06T08:24:52.372Z,67.51
2018-09-06T08:27:21.612Z,67.76
2018-09-06T08:29:50.986Z,64.83
2018-09-06T08:32:20.416Z,66.65
2018-09-06T08:34:49.580Z,67.46
2018-09-06T08:37:18.787Z,67.03
2018-09-06T08:39:47.862Z,64.58
2018-09-06T08:42:17.261Z,62.90
2018-09-06T08:44:46.498Z,63.20
2018-09-06T08:47:16.010Z,63.40
2018-09-06T08:49:45.038Z,63.13
2018-09-06T08:52:14.084Z,62.35
2018-09-06T08:54:43.252Z,61.76
2018-09-06T08:57:12.330Z,60.40
2018-09-06T08:59:41.486Z,60.89
2018-09-06T09:02:12.580Z,60.80
2018-09-06T09:04:41.745Z,60.78
2018-09-06T09:07:10.902Z,59.91
2018-09-06T09:09:39.957Z,59.48
2018-09-06T09:12:08.959Z,60.80
2018-09-06T09:14:38.041Z,60.80
2018-09-06T09:17:07.043Z,58.53
2018-09-06T09:19:36.083Z,59.68
2018-09-06T09:22:05.264Z,60.16
2018-09-06T09:24:34.608Z,60.77
2018-09-06T09:27:03.623Z,58.98
2018-09-06T09:29:32.623Z,57.49
2018-09-06T09:32:01.779Z,59.85
2018-09-06T09:34:30.815Z,59.00
2018-09-06T09:36:59.834Z,59.01
2018-09-06T09:39:28.880Z,60.53
2018-09-06T09:41:58.186Z,57.60
2018-09-06T09:44:27.216Z,57.67
2018-09-06T09:49:24.671Z,56.00
2018-09-06T09:51:53.900Z,56.48
2018-09-06T09:54:22.948Z,56.58
2018-09-06T09:56:51.980Z,57.60
2018-09-06T09:59:20.968Z,57.41
2018-09-06T10:01:55.464Z,58.73
2018-09-06T10:04:29.760Z,57.60
2018-09-06T10:07:04.268Z,56.51
2018-09-06T10:09:33.355Z,55.82
2018-09-06T10:12:02.398Z,58.32
2018-09-06T10:14:31.652Z,56.92
2018-09-06T10:17:00.888Z,56.64
2018-09-06T10:19:30.152Z,55.60
2018-09-06T10:21:59.253Z,56.72
2018-09-06T10:24:28.239Z,55.72
2018-09-06T10:26:57.504Z,54.32
2018-09-06T10:29:26.491Z,55.20
2018-09-06T10:31:55.610Z,54.38
2018-09-06T10:34:24.628Z,54.13
2018-09-06T10:36:53.659Z,55.05
2018-09-06T10:39:22.857Z,54.01
2018-09-06T10:41:52.043Z,51.98
2018-09-06T10:44:21.038Z,53.24
2018-09-06T10:46:50.061Z,52.10
2018-09-06T10:49:19.317Z,53.52
2018-09-06T10:51:48.305Z,54.30
2018-09-06T10:54:17.833Z,54.44
2018-09-06T10:56:46.874Z,54.13
2018-09-06T10:59:15.963Z,52.92
2018-09-06T11:01:45.005Z,53.28
2018-09-06T11:04:14.020Z,53.19
2018-09-06T11:06:43.196Z,52.95
2018-09-06T11:09:12.212Z,51.37
2018-09-06T11:11:41.404Z,50.94
2018-09-06T11:14:10.878Z,52.51
2018-09-06T11:16:39.909Z,52.71
2018-09-06T11:19:08.919Z,51.29
2018-09-06T11:21:38.036Z,51.78
2018-09-06T11:24:07.559Z,50.59
2018-09-06T11:26:36.771Z,49.97
2018-09-06T11:29:05.813Z,49.96
2018-09-06T11:31:34.832Z,49.09
2018-09-06T11:34:04.041Z,48.98
2018-09-06T11:36:33.116Z,46.56
2018-09-06T11:39:02.125Z,46.18
2018-09-06T11:41:31.521Z,44.64
2018-09-06T11:44:00.588Z,43.79
2018-09-06T11:46:29.610Z,44.49
2018-09-06T11:48:58.643Z,45.25
2018-09-06T11:51:27.768Z,45.08
2018-09-06T11:53:57.121Z,45.72
2018-09-06T11:56:26.326Z,45.33
2018-09-06T11:58:55.527Z,44.75
2018-09-06T12:01:24.585Z,45.40
2018-09-06T12:03:53.639Z,46.00
2018-09-06T12:06:22.690Z,45.15
2018-09-06T12:08:51.822Z,46.12
2018-09-06T12:11:20.919Z,47.52
2018-09-06T12:13:50.230Z,46.41
2018-09-06T12:16:19.310Z,45.64
2018-09-06T12:18:48.770Z,46.04
2018-09-06T12:21:18.007Z,47.32
2018-09-06T12:23:47.005Z,47.06
2018-09-06T12:26:16.202Z,46.97
2018-09-06T12:28:45.215Z,45.97
2018-09-06T12:31:14.241Z,45.74
2018-09-06T12:33:43.371Z,44.82
2018-09-06T12:36:12.338Z,43.46
2018-09-06T12:38:41.628Z,42.45
2018-09-06T12:41:10.731Z,43.27
2018-09-06T12:43:39.901Z,41.90
2018-09-06T12:46:08.888Z,42.96
2018-09-06T12:48:37.922Z,43.02
2018-09-06T12:51:07.047Z,42.96
2018-09-06T12:53:36.091Z,42.89
2018-09-06T12:56:05.076Z,44.09
2018-09-06T12:58:34.217Z,44.58
2018-09-06T13:01:03.186Z,43.90
2018-09-06T13:03:32.331Z,43.26
2018-09-06T13:06:01.635Z,43.52
2018-09-06T13:08:30.648Z,43.99
2018-09-06T13:10:59.836Z,42.38
2018-09-06T13:13:28.834Z,42.85
2018-09-06T13:15:58.094Z,42.16
2018-09-06T13:18:27.542Z,41.33
2018-09-06T13:20:56.506Z,43.07
2018-09-06T13:23:25.756Z,41.92
2018-09-06T13:25:54.770Z,42.30
2018-09-06T13:28:23.806Z,41.50
2018-09-06T13:30:52.858Z,42.45
2018-09-06T13:33:21.924Z,42.12
2018-09-06T13:35:51.063Z,41.70
2018-09-06T13:38:20.096Z,42.25
2018-09-06T13:40:49.089Z,41.33
2018-09-06T13:43:18.104Z,40.81
2018-09-06T13:45:47.430Z,41.98
2018-09-06T13:48:16.873Z,42.16
2018-09-06T13:50:46.146Z,42.04
2018-09-06T13:53:15.191Z,41.08
2018-09-06T13:55:44.487Z,41.84
2018-09-06T13:58:13.482Z,42.66
2018-09-06T14:00:42.495Z,42.19
2018-09-06T14:03:11.522Z,41.93
2018-09-06T14:05:40.549Z,41.35
2018-09-06T14:08:09.859Z,40.95
2018-09-06T14:10:39.133Z,41.30
2018-09-06T14:13:08.407Z,40.94
2018-09-06T14:15:37.434Z,40.62
2018-09-06T14:18:06.439Z,40.80
2018-09-06T14:20:35.525Z,41.75
2018-09-06T14:23:04.542Z,42.00
2018-09-06T14:25:33.560Z,40.78
2018-09-06T14:28:02.541Z,40.14
2018-09-06T14:30:31.548Z,40.25
2018-09-06T14:33:00.539Z,40.26
2018-09-06T14:35:29.625Z,41.24
2018-09-06T14:37:58.634Z,42.06
2018-09-06T14:40:27.638Z,41.42
2018-09-06T14:42:56.698Z,40.22
2018-09-06T14:45:25.719Z,40.71
2018-09-06T14:47:54.925Z,40.49
2018-09-06T14:50:23.948Z,41.03
2018-09-06T14:52:52.960Z,41.61
2018-09-06T14:55:22.113Z,40.50
2018-09-06T14:57:51.147Z,41.13
2018-09-06T15:00:20.141Z,41.60
2018-09-06T15:02:49.267Z,40.92
2018-09-06T15:05:18.488Z,41.26
2018-09-06T15:07:47.890Z,41.03
2018-09-06T15:10:17.139Z,39.64
2018-09-06T15:12:46.151Z,40.38
2018-09-06T15:15:15.154Z,41.50
2018-09-06T15:17:44.235Z,41.09
2018-09-06T15:20:13.288Z,41.19
2018-09-06T15:22:42.550Z,41.51
2018-09-06T15:25:11.535Z,42.46
2018-09-06T15:27:40.532Z,42.72
2018-09-06T15:30:09.763Z,42.64
2018-09-06T15:32:38.751Z,41.98
2018-09-06T15:35:07.999Z,42.76
2018-09-06T15:37:37.078Z,42.18
2018-09-06T15:40:08.280Z,44.00
2018-09-06T15:42:38.885Z,43.55
2018-09-06T15:45:08.270Z,44.88
2018-09-06T15:47:38.568Z,44.21
2018-09-06T15:50:08.204Z,45.23
2018-09-06T15:52:37.281Z,45.40
2018-09-06T15:55:06.516Z,44.70
2018-09-06T15:57:35.975Z,44.66
2018-09-06T16:00:05.360Z,45.40
2018-09-06T16:02:35.604Z,45.66
2018-09-06T16:05:06.143Z,44.91
2018-09-06T16:07:35.307Z,44.70
2018-09-06T16:10:04.297Z,45.01
2018-09-06T16:12:33.867Z,44.70
2018-09-06T16:15:02.930Z,45.39
2018-09-06T16:17:33.484Z,45.12
2018-09-06T16:20:03.181Z,45.20
2018-09-06T16:22:32.529Z,46.00
2018-09-06T16:25:01.843Z,45.17
2018-09-06T16:27:31.784Z,44.88
2018-09-06T16:30:01.133Z,45.12
2018-09-06T16:32:30.246Z,45.63
2018-09-06T16:34:59.859Z,45.99
2018-09-06T16:37:29.869Z,46.98
2018-09-06T16:39:59.635Z,46.32
2018-09-06T16:42:29.350Z,46.78
2018-09-06T16:51:56.740Z,46.39
2018-09-06T16:54:25.997Z,46.78
2018-09-06T16:56:55.451Z,46.89
2018-09-06T16:59:25.225Z,46.43
2018-09-06T17:01:54.310Z,46.51
2018-09-06T17:04:23.389Z,46.33
2018-09-06T17:06:52.437Z,46.46
2018-09-06T17:09:21.753Z,47.29
2018-09-06T17:11:51.288Z,46.55
2018-09-06T17:14:20.500Z,47.80
2018-09-06T17:16:49.823Z,47.96
2018-09-06T17:19:18.854Z,48.27
2018-09-06T17:21:48.039Z,48.67
2018-09-06T17:24:17.060Z,48.59
2018-09-06T17:26:46.567Z,49.56
2018-09-06T17:29:16.914Z,49.59
2018-09-06T17:31:45.993Z,50.55
2018-09-06T17:34:15.971Z,50.22
2018-09-06T17:36:45.450Z,49.23
2018-09-06T17:39:16.077Z,50.28
2018-09-06T17:41:45.803Z,50.51
2018-09-06T17:44:16.111Z,50.21
2018-09-06T17:46:45.815Z,51.45
2018-09-06T17:49:16.340Z,51.23
2018-09-06T17:51:47.404Z,51.62
2018-09-06T17:54:17.630Z,51.54
2018-09-06T17:56:48.751Z,51.15
2018-09-06T17:59:18.987Z,51.69
2018-09-06T18:01:48.274Z,52.50
2018-09-06T18:04:17.285Z,52.56
2018-09-06T18:06:46.923Z,52.98
2018-09-06T18:09:16.484Z,52.84
2018-09-06T18:11:46.811Z,52.41
2018-09-06T18:14:17.130Z,52.33
2018-09-06T18:16:48.123Z,52.79
2018-09-06T18:19:17.173Z,53.23
2018-09-06T18:21:46.832Z,53.16
2018-09-06T18:24:16.937Z,53.58
2018-09-06T18:26:46.884Z,52.89
2018-09-06T18:29:16.369Z,53.78
2018-09-06T18:31:45.515Z,53.51
2018-09-06T18:34:15.290Z,53.39
2018-09-06T18:36:45.126Z,54.12
2018-09-06T18:39:15.392Z,52.95
2018-09-06T18:41:44.548Z,53.57
2018-09-06T18:44:13.868Z,53.59
2018-09-06T18:46:44.158Z,53.98
2018-09-06T18:49:14.212Z,53.60
2018-09-06T18:51:44.159Z,54.01
2018-09-06T18:54:14.490Z,52.64
2018-09-06T18:56:43.622Z,53.43
2018-09-06T18:59:12.665Z,53.02
2018-09-06T19:01:41.965Z,52.84
2018-09-06T19:04:11.063Z,54.30
2018-09-06T19:06:40.698Z,53.92
2018-09-06T19:09:12.499Z,53.10
2018-09-06T19:11:42.258Z,53.29
2018-09-06T19:14:12.295Z,53.94
2018-09-06T19:16:42.320Z,53.15
2018-09-06T19:19:12.873Z,53.91
2018-09-06T19:21:42.388Z,54.21
2018-09-06T19:24:11.683Z,55.21
2018-09-06T19:26:41.516Z,54.05
2018-09-06T19:29:11.050Z,54.06
2018-09-06T19:31:40.537Z,54.67
2018-09-06T19:34:12.103Z,53.67
2018-09-06T19:36:44.072Z,54.31
2018-09-06T19:39:13.946Z,54.35
2018-09-06T19:41:43.829Z,53.28
2018-09-06T19:44:14.580Z,53.51
2018-09-06T19:46:44.932Z,53.65
2018-09-06T19:49:15.428Z,53.91
2018-09-06T19:51:44.764Z,54.01
2018-09-06T19:54:14.234Z,52.86
2018-09-06T19:56:43.387Z,54.08
2018-09-06T19:59:12.425Z,53.56
2018-09-06T20:01:41.690Z,53.43
2018-09-06T20:04:10.991Z,54.01
2018-09-06T20:06:40.193Z,54.20
2018-09-06T20:09:09.748Z,54.01
2018-09-06T20:11:40.658Z,54.46
2018-09-06T20:14:09.983Z,53.71
2018-09-06T20:16:39.059Z,54.20
2018-09-06T20:19:08.078Z,53.84
2018-09-06T20:21:37.307Z,53.97
2018-09-06T20:24:06.550Z,53.27
2018-09-06T20:26:35.668Z,53.36
2018-09-06T20:29:04.759Z,53.34
2018-09-06T20:31:33.883Z,54.06
2018-09-06T20:34:03.077Z,53.26
2018-09-06T20:36:32.377Z,53.62
2018-09-06T20:39:01.604Z,53.97
2018-09-06T20:41:30.717Z,54.12
2018-09-06T20:43:59.879Z,53.95
2018-09-06T20:46:28.986Z,53.70
2018-09-06T20:48:57.990Z,54.04
2018-09-06T20:51:27.159Z,54.24
2018-09-06T20:53:56.384Z,53.87
2018-09-06T20:56:25.395Z,53.83
2018-09-06T20:58:55.935Z,53.72
2018-09-06T21:01:25.128Z,54.64
2018-09-06T21:03:54.258Z,53.76
2018-09-06T21:06:23.317Z,53.97
2018-09-06T21:08:52.533Z,53.77
2018-09-06T23:03:21.655Z,54.78
